sensor_id;sensor_type;location;lat;lon;timestamp;P1;durP1;ratioP1;P2;durP2;ratioP2
44842;SDS011;31884;52.538;13.820;2022-11-18T00:01:32;32.45;;;20.60;;
44842;SDS011;31884;52.538;13.820;2022-11-18T00:03:57;33.35;;;21.33;;
44842;SDS011;31884;52.538;13.820;2022-11-18T00:06:24;33.70;;;21.13;;
44842;SDS011;31884;52.538;13.820;2022-11-18T00:08:51;31.20;;;20.02;;
44842;SDS011;31884;52.538;13.820;2022-11-18T00:11:19;31.33;;;20.17;;
44842;SDS011;31884;52.538;13.820;2022-11-18T00:14:09;32.13;;;19.60;;
44842;SDS011;31884;52.538;13.820;2022-11-18T00:16:54;34.92;;;20.88;;
44842;SDS011;31884;52.538;13.820;2022-11-18T00:19:22;37.58;;;20.88;;
44842;SDS011;31884;52.538;13.820;2022-11-18T00:21:50;32.10;;;20.80;;
44842;SDS011;31884;52.538;13.820;2022-11-18T00:24:15;32.83;;;20.80;;
44842;SDS011;31884;52.538;13.820;2022-11-18T00:26:41;36.65;;;21.85;;
44842;SDS011;31884;52.538;13.820;2022-11-18T00:29:08;36.33;;;20.50;;
44842;SDS011;31884;52.538;13.820;2022-11-18T00:31:36;33.45;;;21.08;;
44842;SDS011;31884;52.538;13.820;2022-11-18T00:34:02;36.92;;;21.83;;
44842;SDS011;31884;52.538;13.820;2022-11-18T00:36:28;31.92;;;20.33;;
44842;SDS011;31884;52.538;13.820;2022-11-18T00:38:53;34.78;;;21.63;;
44842;SDS011;31884;52.538;13.820;2022-11-18T00:41:19;32.55;;;19.95;;
44842;SDS011;31884;52.538;13.820;2022-11-18T00:43:45;35.80;;;21.25;;
44842;SDS011;31884;52.538;13.820;2022-11-18T00:46:11;34.80;;;22.00;;
44842;SDS011;31884;52.538;13.820;2022-11-18T00:48:37;34.83;;;21.70;;
44842;SDS011;31884;52.538;13.820;2022-11-18T00:51:10;33.22;;;20.75;;
44842;SDS011;31884;52.538;13.820;2022-11-18T00:53:38;34.78;;;21.50;;
44842;SDS011;31884;52.538;13.820;2022-11-18T00:56:04;35.25;;;22.13;;
44842;SDS011;31884;52.538;13.820;2022-11-18T00:58:30;34.42;;;21.55;;
44842;SDS011;31884;52.538;13.820;2022-11-18T01:00:56;39.50;;;23.15;;
44842;SDS011;31884;52.538;13.820;2022-11-18T01:03:21;35.33;;;20.98;;
44842;SDS011;31884;52.538;13.820;2022-11-18T01:05:48;39.78;;;22.63;;
44842;SDS011;31884;52.538;13.820;2022-11-18T01:08:13;36.30;;;21.63;;
44842;SDS011;31884;52.538;13.820;2022-11-18T01:10:39;33.45;;;20.77;;
44842;SDS011;31884;52.538;13.820;2022-11-18T01:13:05;34.03;;;21.42;;
44842;SDS011;31884;52.538;13.820;2022-11-18T01:15:45;38.67;;;23.35;;
44842;SDS011;31884;52.538;13.820;2022-11-18T01:18:15;37.80;;;23.23;;
44842;SDS011;31884;52.538;13.820;2022-11-18T01:20:42;35.92;;;21.98;;
44842;SDS011;31884;52.538;13.820;2022-11-18T01:23:08;37.40;;;22.95;;
44842;SDS011;31884;52.538;13.820;2022-11-18T01:25:35;34.63;;;21.88;;
44842;SDS011;31884;52.538;13.820;2022-11-18T01:28:01;35.25;;;22.20;;
44842;SDS011;31884;52.538;13.820;2022-11-18T01:30:28;37.03;;;23.13;;
44842;SDS011;31884;52.538;13.820;2022-11-18T01:32:53;34.67;;;21.50;;
44842;SDS011;31884;52.538;13.820;2022-11-18T01:35:19;36.25;;;21.83;;
44842;SDS011;31884;52.538;13.820;2022-11-18T01:37:45;34.92;;;21.92;;
44842;SDS011;31884;52.538;13.820;2022-11-18T01:40:10;32.10;;;20.13;;
44842;SDS011;31884;52.538;13.820;2022-11-18T01:42:36;36.78;;;21.48;;
44842;SDS011;31884;52.538;13.820;2022-11-18T01:45:06;33.78;;;20.27;;
44842;SDS011;31884;52.538;13.820;2022-11-18T01:47:50;34.95;;;21.92;;
44842;SDS011;31884;52.538;13.820;2022-11-18T01:50:22;37.15;;;20.00;;
44842;SDS011;31884;52.538;13.820;2022-11-18T01:52:50;34.38;;;20.20;;
44842;SDS011;31884;52.538;13.820;2022-11-18T01:55:21;32.47;;;20.27;;
44842;SDS011;31884;52.538;13.820;2022-11-18T01:57:50;36.47;;;21.50;;
44842;SDS011;31884;52.538;13.820;2022-11-18T02:00:21;32.63;;;20.85;;
44842;SDS011;31884;52.538;13.820;2022-11-18T02:02:46;37.67;;;22.58;;
44842;SDS011;31884;52.538;13.820;2022-11-18T02:05:13;33.92;;;21.08;;
44842;SDS011;31884;52.538;13.820;2022-11-18T02:07:40;36.55;;;22.23;;
44842;SDS011;31884;52.538;13.820;2022-11-18T02:10:07;37.85;;;22.40;;
44842;SDS011;31884;52.538;13.820;2022-11-18T02:12:45;32.30;;;20.58;;
44842;SDS011;31884;52.538;13.820;2022-11-18T02:15:10;34.88;;;22.23;;
44842;SDS011;31884;52.538;13.820;2022-11-18T02:22:42;37.75;;;21.77;;
44842;SDS011;31884;52.538;13.820;2022-11-18T02:26:01;34.80;;;22.27;;
44842;SDS011;31884;52.538;13.820;2022-11-18T02:29:09;35.75;;;21.83;;
44842;SDS011;31884;52.538;13.820;2022-11-18T02:39:21;35.50;;;22.15;;
44842;SDS011;31884;52.538;13.820;2022-11-18T02:41:53;36.80;;;23.42;;
44842;SDS011;31884;52.538;13.820;2022-11-18T02:44:21;36.08;;;22.65;;
44842;SDS011;31884;52.538;13.820;2022-11-18T02:46:51;38.38;;;23.70;;
44842;SDS011;31884;52.538;13.820;2022-11-18T02:49:24;33.97;;;22.13;;
44842;SDS011;31884;52.538;13.820;2022-11-18T02:51:58;37.60;;;22.77;;
44842;SDS011;31884;52.538;13.820;2022-11-18T02:54:25;36.15;;;22.83;;
44842;SDS011;31884;52.538;13.820;2022-11-18T02:56:52;36.38;;;23.52;;
44842;SDS011;31884;52.538;13.820;2022-11-18T02:59:26;38.83;;;24.17;;
44842;SDS011;31884;52.538;13.820;2022-11-18T03:01:52;37.05;;;22.65;;
44842;SDS011;31884;52.538;13.820;2022-11-18T03:04:17;35.35;;;21.42;;
44842;SDS011;31884;52.538;13.820;2022-11-18T03:09:41;39.05;;;23.40;;
44842;SDS011;31884;52.538;13.820;2022-11-18T03:20:57;37.72;;;23.48;;
44842;SDS011;31884;52.538;13.820;2022-11-18T03:23:32;36.15;;;22.95;;
44842;SDS011;31884;52.538;13.820;2022-11-18T03:26:04;42.58;;;24.20;;
44842;SDS011;31884;52.538;13.820;2022-11-18T03:28:39;38.40;;;22.80;;
44842;SDS011;31884;52.538;13.820;2022-11-18T03:31:14;40.72;;;24.40;;
44842;SDS011;31884;52.538;13.820;2022-11-18T03:33:55;43.22;;;24.05;;
44842;SDS011;31884;52.538;13.820;2022-11-18T03:36:28;41.55;;;25.05;;
44842;SDS011;31884;52.538;13.820;2022-11-18T03:38:58;44.55;;;25.13;;
44842;SDS011;31884;52.538;13.820;2022-11-18T03:41:27;37.35;;;22.40;;
44842;SDS011;31884;52.538;13.820;2022-11-18T03:43:56;43.05;;;24.33;;
44842;SDS011;31884;52.538;13.820;2022-11-18T03:46:30;41.95;;;23.88;;
44842;SDS011;31884;52.538;13.820;2022-11-18T03:49:02;45.30;;;25.90;;
44842;SDS011;31884;52.538;13.820;2022-11-18T03:51:32;44.45;;;24.30;;
44842;SDS011;31884;52.538;13.820;2022-11-18T03:54:05;41.63;;;23.20;;
44842;SDS011;31884;52.538;13.820;2022-11-18T03:56:37;51.42;;;26.60;;
44842;SDS011;31884;52.538;13.820;2022-11-18T03:59:20;48.25;;;26.48;;
44842;SDS011;31884;52.538;13.820;2022-11-18T04:01:51;46.97;;;27.05;;
44842;SDS011;31884;52.538;13.820;2022-11-18T04:04:21;48.78;;;27.83;;
44842;SDS011;31884;52.538;13.820;2022-11-18T04:07:00;51.53;;;28.27;;
44842;SDS011;31884;52.538;13.820;2022-11-18T04:09:28;51.00;;;27.98;;
44842;SDS011;31884;52.538;13.820;2022-11-18T04:11:59;51.78;;;29.05;;
44842;SDS011;31884;52.538;13.820;2022-11-18T04:14:35;52.85;;;28.83;;
44842;SDS011;31884;52.538;13.820;2022-11-18T04:17:21;53.17;;;28.20;;
44842;SDS011;31884;52.538;13.820;2022-11-18T04:19:50;51.50;;;28.48;;
44842;SDS011;31884;52.538;13.820;2022-11-18T04:22:15;55.58;;;29.65;;
44842;SDS011;31884;52.538;13.820;2022-11-18T04:24:43;57.72;;;29.92;;
44842;SDS011;31884;52.538;13.820;2022-11-18T04:27:08;57.90;;;29.58;;
44842;SDS011;31884;52.538;13.820;2022-11-18T04:29:34;54.40;;;29.23;;
44842;SDS011;31884;52.538;13.820;2022-11-18T04:32:00;57.72;;;31.33;;
44842;SDS011;31884;52.538;13.820;2022-11-18T04:34:26;57.78;;;32.08;;
44842;SDS011;31884;52.538;13.820;2022-11-18T04:36:52;56.00;;;30.08;;
44842;SDS011;31884;52.538;13.820;2022-11-18T04:39:17;56.10;;;28.85;;
44842;SDS011;31884;52.538;13.820;2022-11-18T04:41:43;57.97;;;31.02;;
44842;SDS011;31884;52.538;13.820;2022-11-18T04:44:28;62.30;;;31.48;;
44842;SDS011;31884;52.538;13.820;2022-11-18T04:46:56;61.10;;;30.95;;
44842;SDS011;31884;52.538;13.820;2022-11-18T04:49:23;58.22;;;31.33;;
44842;SDS011;31884;52.538;13.820;2022-11-18T04:51:50;59.63;;;30.48;;
44842;SDS011;31884;52.538;13.820;2022-11-18T04:54:17;57.20;;;30.48;;
44842;SDS011;31884;52.538;13.820;2022-11-18T04:56:43;59.60;;;31.38;;
44842;SDS011;31884;52.538;13.820;2022-11-18T04:59:10;54.70;;;28.60;;
44842;SDS011;31884;52.538;13.820;2022-11-18T05:01:36;58.78;;;29.15;;
44842;SDS011;31884;52.538;13.820;2022-11-18T05:04:02;56.53;;;29.60;;
44842;SDS011;31884;52.538;13.820;2022-11-18T05:06:29;57.28;;;29.77;;
44842;SDS011;31884;52.538;13.820;2022-11-18T05:08:58;53.40;;;27.85;;
44842;SDS011;31884;52.538;13.820;2022-11-18T05:11:25;49.58;;;28.08;;
44842;SDS011;31884;52.538;13.820;2022-11-18T05:14:10;54.78;;;28.35;;
44842;SDS011;31884;52.538;13.820;2022-11-18T05:16:36;53.45;;;27.15;;
44842;SDS011;31884;52.538;13.820;2022-11-18T05:19:02;50.70;;;25.88;;
44842;SDS011;31884;52.538;13.820;2022-11-18T05:21:28;50.65;;;26.50;;
44842;SDS011;31884;52.538;13.820;2022-11-18T05:23:54;48.08;;;26.25;;
44842;SDS011;31884;52.538;13.820;2022-11-18T05:26:19;47.70;;;25.70;;
44842;SDS011;31884;52.538;13.820;2022-11-18T05:28:45;41.63;;;24.35;;
44842;SDS011;31884;52.538;13.820;2022-11-18T05:31:11;44.45;;;24.15;;
44842;SDS011;31884;52.538;13.820;2022-11-18T05:33:38;42.15;;;24.70;;
44842;SDS011;31884;52.538;13.820;2022-11-18T05:36:08;39.95;;;23.02;;
44842;SDS011;31884;52.538;13.820;2022-11-18T05:38:39;41.05;;;21.75;;
44842;SDS011;31884;52.538;13.820;2022-11-18T05:41:05;41.10;;;21.70;;
44842;SDS011;31884;52.538;13.820;2022-11-18T05:43:31;39.17;;;22.95;;
44842;SDS011;31884;52.538;13.820;2022-11-18T05:45:58;39.50;;;22.95;;
44842;SDS011;31884;52.538;13.820;2022-11-18T05:48:24;44.65;;;22.77;;
44842;SDS011;31884;52.538;13.820;2022-11-18T05:50:50;41.17;;;23.13;;
44842;SDS011;31884;52.538;13.820;2022-11-18T05:53:18;35.70;;;20.38;;
44842;SDS011;31884;52.538;13.820;2022-11-18T05:56:03;40.58;;;23.85;;
44842;SDS011;31884;52.538;13.820;2022-11-18T05:58:34;36.45;;;20.70;;
44842;SDS011;31884;52.538;13.820;2022-11-18T06:01:00;40.30;;;22.33;;
44842;SDS011;31884;52.538;13.820;2022-11-18T06:03:29;39.13;;;21.85;;
44842;SDS011;31884;52.538;13.820;2022-11-18T06:05:57;37.72;;;22.65;;
44842;SDS011;31884;52.538;13.820;2022-11-18T06:08:28;39.72;;;21.42;;
44842;SDS011;31884;52.538;13.820;2022-11-18T06:10:57;37.25;;;19.63;;
44842;SDS011;31884;52.538;13.820;2022-11-18T06:13:24;37.88;;;21.35;;
44842;SDS011;31884;52.538;13.820;2022-11-18T06:15:54;38.35;;;21.52;;
44842;SDS011;31884;52.538;13.820;2022-11-18T06:18:24;39.10;;;21.67;;
44842;SDS011;31884;52.538;13.820;2022-11-18T06:20:53;39.00;;;21.13;;
44842;SDS011;31884;52.538;13.820;2022-11-18T06:23:21;38.83;;;21.90;;
44842;SDS011;31884;52.538;13.820;2022-11-18T06:25:47;38.30;;;21.58;;
44842;SDS011;31884;52.538;13.820;2022-11-18T06:28:14;35.17;;;19.73;;
44842;SDS011;31884;52.538;13.820;2022-11-18T06:30:40;35.90;;;20.13;;
44842;SDS011;31884;52.538;13.820;2022-11-18T06:33:07;38.55;;;20.98;;
44842;SDS011;31884;52.538;13.820;2022-11-18T06:35:32;35.97;;;20.00;;
44842;SDS011;31884;52.538;13.820;2022-11-18T06:37:58;37.58;;;20.15;;
44842;SDS011;31884;52.538;13.820;2022-11-18T06:40:23;35.58;;;19.65;;
44842;SDS011;31884;52.538;13.820;2022-11-18T06:42:49;37.40;;;22.02;;
44842;SDS011;31884;52.538;13.820;2022-11-18T06:45:33;39.50;;;21.65;;
44842;SDS011;31884;52.538;13.820;2022-11-18T06:47:59;38.65;;;20.75;;
44842;SDS011;31884;52.538;13.820;2022-11-18T06:50:25;39.17;;;21.67;;
44842;SDS011;31884;52.538;13.820;2022-11-18T06:52:52;37.08;;;20.42;;
44842;SDS011;31884;52.538;13.820;2022-11-18T06:55:17;37.72;;;21.33;;
44842;SDS011;31884;52.538;13.820;2022-11-18T06:57:43;38.75;;;20.10;;
44842;SDS011;31884;52.538;13.820;2022-11-18T07:00:09;38.05;;;21.20;;
44842;SDS011;31884;52.538;13.820;2022-11-18T07:02:35;37.00;;;20.52;;
44842;SDS011;31884;52.538;13.820;2022-11-18T07:05:01;40.85;;;21.90;;
44842;SDS011;31884;52.538;13.820;2022-11-18T07:07:27;39.20;;;21.58;;
44842;SDS011;31884;52.538;13.820;2022-11-18T07:09:52;41.00;;;22.02;;
44842;SDS011;31884;52.538;13.820;2022-11-18T07:12:18;40.80;;;22.65;;
44842;SDS011;31884;52.538;13.820;2022-11-18T07:14:43;39.75;;;22.50;;
44842;SDS011;31884;52.538;13.820;2022-11-18T07:17:09;39.28;;;20.33;;
44842;SDS011;31884;52.538;13.820;2022-11-18T07:19:34;36.95;;;21.10;;
44842;SDS011;31884;52.538;13.820;2022-11-18T07:22:00;35.95;;;21.05;;
44842;SDS011;31884;52.538;13.820;2022-11-18T07:24:25;39.03;;;20.75;;
44842;SDS011;31884;52.538;13.820;2022-11-18T07:26:54;38.15;;;20.20;;
44842;SDS011;31884;52.538;13.820;2022-11-18T07:29:19;37.60;;;20.15;;
44842;SDS011;31884;52.538;13.820;2022-11-18T07:31:44;34.42;;;19.65;;
44842;SDS011;31884;52.538;13.820;2022-11-18T07:34:10;39.38;;;21.08;;
44842;SDS011;31884;52.538;13.820;2022-11-18T07:36:37;32.00;;;19.67;;
44842;SDS011;31884;52.538;13.820;2022-11-18T07:39:03;39.75;;;19.88;;
44842;SDS011;31884;52.538;13.820;2022-11-18T07:41:30;34.67;;;19.40;;
44842;SDS011;31884;52.538;13.820;2022-11-18T07:43:57;36.60;;;19.77;;
44842;SDS011;31884;52.538;13.820;2022-11-18T07:46:26;41.92;;;21.17;;
44842;SDS011;31884;52.538;13.820;2022-11-18T07:48:55;32.35;;;19.27;;
44842;SDS011;31884;52.538;13.820;2022-11-18T07:51:23;37.35;;;20.65;;
44842;SDS011;31884;52.538;13.820;2022-11-18T07:53:50;36.22;;;19.75;;
44842;SDS011;31884;52.538;13.820;2022-11-18T07:56:15;36.97;;;22.48;;
44842;SDS011;31884;52.538;13.820;2022-11-18T07:58:42;35.35;;;20.63;;
44842;SDS011;31884;52.538;13.820;2022-11-18T08:01:09;34.90;;;20.17;;
44842;SDS011;31884;52.538;13.820;2022-11-18T08:03:36;36.85;;;19.55;;
44842;SDS011;31884;52.538;13.820;2022-11-18T08:06:03;41.10;;;20.52;;
44842;SDS011;31884;52.538;13.820;2022-11-18T08:08:30;36.90;;;19.20;;
44842;SDS011;31884;52.538;13.820;2022-11-18T08:10:56;35.95;;;19.80;;
44842;SDS011;31884;52.538;13.820;2022-11-18T08:13:23;31.25;;;17.88;;
44842;SDS011;31884;52.538;13.820;2022-11-18T08:15:49;38.47;;;20.48;;
44842;SDS011;31884;52.538;13.820;2022-11-18T08:18:14;32.72;;;17.27;;
44842;SDS011;31884;52.538;13.820;2022-11-18T08:20:40;33.88;;;18.27;;
44842;SDS011;31884;52.538;13.820;2022-11-18T08:23:05;34.03;;;19.92;;
44842;SDS011;31884;52.538;13.820;2022-11-18T08:25:31;35.90;;;20.20;;
44842;SDS011;31884;52.538;13.820;2022-11-18T08:27:56;35.83;;;20.83;;
44842;SDS011;31884;52.538;13.820;2022-11-18T08:30:22;35.53;;;18.98;;
44842;SDS011;31884;52.538;13.820;2022-11-18T08:32:47;37.15;;;21.00;;
44842;SDS011;31884;52.538;13.820;2022-11-18T08:35:13;34.58;;;19.60;;
44842;SDS011;31884;52.538;13.820;2022-11-18T08:37:38;35.58;;;20.50;;
44842;SDS011;31884;52.538;13.820;2022-11-18T08:40:04;35.50;;;19.73;;
44842;SDS011;31884;52.538;13.820;2022-11-18T08:42:30;32.70;;;20.13;;
44842;SDS011;31884;52.538;13.820;2022-11-18T08:44:55;35.28;;;19.77;;
44842;SDS011;31884;52.538;13.820;2022-11-18T08:47:21;33.33;;;20.02;;
44842;SDS011;31884;52.538;13.820;2022-11-18T08:49:46;34.80;;;19.92;;
44842;SDS011;31884;52.538;13.820;2022-11-18T08:52:12;36.03;;;19.48;;
44842;SDS011;31884;52.538;13.820;2022-11-18T08:54:38;33.67;;;18.10;;
44842;SDS011;31884;52.538;13.820;2022-11-18T08:57:03;36.83;;;18.60;;
44842;SDS011;31884;52.538;13.820;2022-11-18T08:59:29;31.60;;;16.85;;
44842;SDS011;31884;52.538;13.820;2022-11-18T09:01:54;28.42;;;16.08;;
44842;SDS011;31884;52.538;13.820;2022-11-18T09:04:20;26.40;;;14.95;;
44842;SDS011;31884;52.538;13.820;2022-11-18T09:06:45;29.60;;;16.23;;
44842;SDS011;31884;52.538;13.820;2022-11-18T09:09:11;27.05;;;16.05;;
44842;SDS011;31884;52.538;13.820;2022-11-18T09:11:37;25.33;;;14.20;;
44842;SDS011;31884;52.538;13.820;2022-11-18T09:14:03;24.83;;;13.85;;
44842;SDS011;31884;52.538;13.820;2022-11-18T09:16:30;22.08;;;12.27;;
44842;SDS011;31884;52.538;13.820;2022-11-18T09:18:57;19.98;;;11.68;;
44842;SDS011;31884;52.538;13.820;2022-11-18T09:21:24;21.27;;;12.70;;
44842;SDS011;31884;52.538;13.820;2022-11-18T09:23:50;20.88;;;11.93;;
44842;SDS011;31884;52.538;13.820;2022-11-18T09:26:17;20.85;;;11.80;;
44842;SDS011;31884;52.538;13.820;2022-11-18T09:28:45;19.83;;;10.95;;
44842;SDS011;31884;52.538;13.820;2022-11-18T09:31:12;18.23;;;10.52;;
44842;SDS011;31884;52.538;13.820;2022-11-18T09:33:39;16.38;;;9.55;;
44842;SDS011;31884;52.538;13.820;2022-11-18T09:36:09;19.40;;;10.77;;
44842;SDS011;31884;52.538;13.820;2022-11-18T09:38:40;17.50;;;10.10;;
44842;SDS011;31884;52.538;13.820;2022-11-18T09:41:11;17.83;;;10.60;;
44842;SDS011;31884;52.538;13.820;2022-11-18T09:47:03;16.15;;;9.00;;
44842;SDS011;31884;52.538;13.820;2022-11-18T09:49:51;16.05;;;9.18;;
44842;SDS011;31884;52.538;13.820;2022-11-18T09:52:21;14.93;;;9.10;;
44842;SDS011;31884;52.538;13.820;2022-11-18T09:54:55;12.10;;;8.82;;
44842;SDS011;31884;52.538;13.820;2022-11-18T09:57:24;14.65;;;9.25;;
44842;SDS011;31884;52.538;13.820;2022-11-18T09:59:55;14.82;;;9.27;;
44842;SDS011;31884;52.538;13.820;2022-11-18T10:05:13;14.63;;;9.02;;
44842;SDS011;31884;52.538;13.820;2022-11-18T10:07:49;16.30;;;8.50;;
44842;SDS011;31884;52.538;13.820;2022-11-18T10:13:16;16.00;;;9.00;;
44842;SDS011;31884;52.538;13.820;2022-11-18T10:15:50;14.32;;;9.55;;
44842;SDS011;31884;52.538;13.820;2022-11-18T10:18:35;17.08;;;8.95;;
44842;SDS011;31884;52.538;13.820;2022-11-18T10:21:22;15.70;;;9.50;;
44842;SDS011;31884;52.538;13.820;2022-11-18T10:24:08;13.00;;;8.70;;
44842;SDS011;31884;52.538;13.820;2022-11-18T10:26:45;17.67;;;9.63;;
44842;SDS011;31884;52.538;13.820;2022-11-18T10:29:11;13.98;;;8.60;;
44842;SDS011;31884;52.538;13.820;2022-11-18T10:31:38;15.57;;;10.13;;
44842;SDS011;31884;52.538;13.820;2022-11-18T10:34:16;16.35;;;9.88;;
44842;SDS011;31884;52.538;13.820;2022-11-18T10:36:43;16.30;;;9.68;;
44842;SDS011;31884;52.538;13.820;2022-11-18T10:39:22;14.15;;;8.98;;
44842;SDS011;31884;52.538;13.820;2022-11-18T10:41:49;14.38;;;8.55;;
44842;SDS011;31884;52.538;13.820;2022-11-18T10:47:20;14.43;;;8.35;;
44842;SDS011;31884;52.538;13.820;2022-11-18T10:49:54;13.93;;;8.10;;
44842;SDS011;31884;52.538;13.820;2022-11-18T10:52:21;17.08;;;9.68;;
44842;SDS011;31884;52.538;13.820;2022-11-18T10:57:34;11.55;;;7.38;;
44842;SDS011;31884;52.538;13.820;2022-11-18T11:00:03;13.95;;;8.73;;
44842;SDS011;31884;52.538;13.820;2022-11-18T11:02:38;13.80;;;8.82;;
44842;SDS011;31884;52.538;13.820;2022-11-18T11:05:23;13.43;;;8.82;;
44842;SDS011;31884;52.538;13.820;2022-11-18T11:08:17;12.43;;;8.52;;
44842;SDS011;31884;52.538;13.820;2022-11-18T11:10:54;13.88;;;8.80;;
44842;SDS011;31884;52.538;13.820;2022-11-18T11:13:21;14.70;;;8.45;;
44842;SDS011;31884;52.538;13.820;2022-11-18T11:15:54;15.57;;;9.38;;
44842;SDS011;31884;52.538;13.820;2022-11-18T11:18:24;15.82;;;8.43;;
44842;SDS011;31884;52.538;13.820;2022-11-18T11:21:11;14.90;;;8.77;;
44842;SDS011;31884;52.538;13.820;2022-11-18T11:23:37;12.23;;;7.65;;
44842;SDS011;31884;52.538;13.820;2022-11-18T11:26:19;14.18;;;8.95;;
44842;SDS011;31884;52.538;13.820;2022-11-18T11:29:14;13.63;;;8.30;;
44842;SDS011;31884;52.538;13.820;2022-11-18T11:57:03;12.98;;;7.50;;
44842;SDS011;31884;52.538;13.820;2022-11-18T11:59:45;12.98;;;7.32;;
44842;SDS011;31884;52.538;13.820;2022-11-18T12:05:00;15.20;;;8.10;;
44842;SDS011;31884;52.538;13.820;2022-11-18T12:15:51;12.38;;;8.05;;
44842;SDS011;31884;52.538;13.820;2022-11-18T12:18:59;11.60;;;7.30;;
44842;SDS011;31884;52.538;13.820;2022-11-18T12:26:47;12.10;;;7.55;;
44842;SDS011;31884;52.538;13.820;2022-11-18T12:29:19;11.52;;;6.85;;
44842;SDS011;31884;52.538;13.820;2022-11-18T12:34:30;12.13;;;7.57;;
44842;SDS011;31884;52.538;13.820;2022-11-18T12:38:02;10.65;;;7.00;;
44842;SDS011;31884;52.538;13.820;2022-11-18T12:39:57;10.48;;;7.13;;
44842;SDS011;31884;52.538;13.820;2022-11-18T12:50:55;11.00;;;6.88;;
44842;SDS011;31884;52.538;13.820;2022-11-18T12:53:40;9.77;;;6.63;;
44842;SDS011;31884;52.538;13.820;2022-11-18T12:58:46;10.55;;;7.07;;
44842;SDS011;31884;52.538;13.820;2022-11-18T13:01:14;10.18;;;6.72;;
44842;SDS011;31884;52.538;13.820;2022-11-18T13:03:42;9.68;;;7.07;;
44842;SDS011;31884;52.538;13.820;2022-11-18T13:06:13;10.00;;;6.25;;
44842;SDS011;31884;52.538;13.820;2022-11-18T13:08:49;8.48;;;5.90;;
44842;SDS011;31884;52.538;13.820;2022-11-18T13:11:26;8.63;;;5.80;;
44842;SDS011;31884;52.538;13.820;2022-11-18T13:17:24;10.57;;;6.28;;
44842;SDS011;31884;52.538;13.820;2022-11-18T13:22:48;10.57;;;5.85;;
44842;SDS011;31884;52.538;13.820;2022-11-18T13:25:39;8.63;;;5.95;;
44842;SDS011;31884;52.538;13.820;2022-11-18T13:33:38;9.25;;;6.00;;
44842;SDS011;31884;52.538;13.820;2022-11-18T13:36:15;9.23;;;6.22;;
44842;SDS011;31884;52.538;13.820;2022-11-18T13:38:55;10.27;;;6.57;;
44842;SDS011;31884;52.538;13.820;2022-11-18T13:41:26;8.30;;;5.53;;
44842;SDS011;31884;52.538;13.820;2022-11-18T13:46:47;9.15;;;5.55;;
44842;SDS011;31884;52.538;13.820;2022-11-18T13:49:19;9.43;;;5.43;;
44842;SDS011;31884;52.538;13.820;2022-11-18T13:54:21;7.80;;;5.30;;
44842;SDS011;31884;52.538;13.820;2022-11-18T13:56:49;8.52;;;5.40;;
44842;SDS011;31884;52.538;13.820;2022-11-18T13:59:16;7.20;;;5.25;;
44842;SDS011;31884;52.538;13.820;2022-11-18T14:01:44;7.47;;;4.88;;
44842;SDS011;31884;52.538;13.820;2022-11-18T14:06:47;7.07;;;4.22;;
44842;SDS011;31884;52.538;13.820;2022-11-18T14:11:45;4.63;;;4.03;;
44842;SDS011;31884;52.538;13.820;2022-11-18T14:14:34;5.30;;;2.83;;
44842;SDS011;31884;52.538;13.820;2022-11-18T14:19:44;5.38;;;3.80;;
44842;SDS011;31884;52.538;13.820;2022-11-18T14:22:21;5.20;;;3.50;;
44842;SDS011;31884;52.538;13.820;2022-11-18T14:24:56;4.90;;;3.33;;
44842;SDS011;31884;52.538;13.820;2022-11-18T14:27:26;6.28;;;4.00;;
44842;SDS011;31884;52.538;13.820;2022-11-18T14:30:22;6.97;;;3.70;;
44842;SDS011;31884;52.538;13.820;2022-11-18T14:35:35;5.40;;;3.35;;
44842;SDS011;31884;52.538;13.820;2022-11-18T14:38:01;6.10;;;3.40;;
44842;SDS011;31884;52.538;13.820;2022-11-18T14:40:35;4.18;;;2.97;;
44842;SDS011;31884;52.538;13.820;2022-11-18T14:43:01;4.55;;;2.80;;
44842;SDS011;31884;52.538;13.820;2022-11-18T14:45:26;5.28;;;3.63;;
44842;SDS011;31884;52.538;13.820;2022-11-18T14:47:52;5.28;;;3.42;;
44842;SDS011;31884;52.538;13.820;2022-11-18T14:50:17;5.85;;;3.42;;
44842;SDS011;31884;52.538;13.820;2022-11-18T14:52:43;6.18;;;3.53;;
44842;SDS011;31884;52.538;13.820;2022-11-18T14:55:09;7.43;;;4.40;;
44842;SDS011;31884;52.538;13.820;2022-11-18T14:57:35;6.97;;;4.25;;
44842;SDS011;31884;52.538;13.820;2022-11-18T15:00:00;5.65;;;3.53;;
44842;SDS011;31884;52.538;13.820;2022-11-18T15:02:26;5.22;;;3.35;;
44842;SDS011;31884;52.538;13.820;2022-11-18T15:04:51;5.05;;;3.17;;
44842;SDS011;31884;52.538;13.820;2022-11-18T15:07:17;4.82;;;2.70;;
44842;SDS011;31884;52.538;13.820;2022-11-18T15:09:43;4.20;;;2.80;;
44842;SDS011;31884;52.538;13.820;2022-11-18T15:12:08;5.57;;;2.92;;
44842;SDS011;31884;52.538;13.820;2022-11-18T15:14:34;6.93;;;3.15;;
44842;SDS011;31884;52.538;13.820;2022-11-18T15:17:01;7.68;;;3.25;;
44842;SDS011;31884;52.538;13.820;2022-11-18T15:19:27;4.65;;;2.95;;
44842;SDS011;31884;52.538;13.820;2022-11-18T15:21:53;7.75;;;2.95;;
44842;SDS011;31884;52.538;13.820;2022-11-18T15:24:18;5.63;;;3.13;;
44842;SDS011;31884;52.538;13.820;2022-11-18T15:26:44;5.65;;;3.28;;
44842;SDS011;31884;52.538;13.820;2022-11-18T15:29:18;4.95;;;2.80;;
44842;SDS011;31884;52.538;13.820;2022-11-18T15:31:47;4.93;;;3.45;;
44842;SDS011;31884;52.538;13.820;2022-11-18T15:34:13;8.00;;;3.78;;
44842;SDS011;31884;52.538;13.820;2022-11-18T15:36:39;3.67;;;2.58;;
44842;SDS011;31884;52.538;13.820;2022-11-18T15:39:05;4.25;;;2.78;;
44842;SDS011;31884;52.538;13.820;2022-11-18T15:41:31;3.60;;;2.58;;
44842;SDS011;31884;52.538;13.820;2022-11-18T15:43:57;4.53;;;3.05;;
44842;SDS011;31884;52.538;13.820;2022-11-18T15:46:24;6.00;;;3.42;;
44842;SDS011;31884;52.538;13.820;2022-11-18T15:48:51;5.90;;;3.35;;
44842;SDS011;31884;52.538;13.820;2022-11-18T15:51:18;6.63;;;3.47;;
44842;SDS011;31884;52.538;13.820;2022-11-18T15:53:44;8.82;;;3.13;;
44842;SDS011;31884;52.538;13.820;2022-11-18T16:01:37;8.48;;;4.32;;
44842;SDS011;31884;52.538;13.820;2022-11-18T16:04:04;7.68;;;4.03;;
44842;SDS011;31884;52.538;13.820;2022-11-18T16:06:30;10.73;;;4.85;;
44842;SDS011;31884;52.538;13.820;2022-11-18T16:08:56;9.00;;;4.68;;
44842;SDS011;31884;52.538;13.820;2022-11-18T16:11:22;11.73;;;4.55;;
44842;SDS011;31884;52.538;13.820;2022-11-18T16:14:07;14.27;;;6.88;;
44842;SDS011;31884;52.538;13.820;2022-11-18T16:16:34;28.48;;;10.50;;
44842;SDS011;31884;52.538;13.820;2022-11-18T16:19:01;23.60;;;10.40;;
44842;SDS011;31884;52.538;13.820;2022-11-18T16:21:30;21.63;;;10.45;;
44842;SDS011;31884;52.538;13.820;2022-11-18T16:23:59;23.50;;;10.57;;
44842;SDS011;31884;52.538;13.820;2022-11-18T16:26:26;39.70;;;16.00;;
44842;SDS011;31884;52.538;13.820;2022-11-18T16:28:54;26.35;;;13.07;;
44842;SDS011;31884;52.538;13.820;2022-11-18T16:31:20;43.58;;;18.92;;
44842;SDS011;31884;52.538;13.820;2022-11-18T16:34:20;29.25;;;14.68;;
44842;SDS011;31884;52.538;13.820;2022-11-18T16:36:47;29.08;;;14.27;;
44842;SDS011;31884;52.538;13.820;2022-11-18T16:39:15;18.95;;;9.98;;